Time;durP1;ratioP1;P1;durP2;ratioP2;P2;SDS_P1;SDS_P2;PMS_P1;PMS_P2;Temp;Humidity;BMP_temperature;BMP_pressure;BME280_temperature;BME280_humidity;BME280_pressure;Samples;Min_cycle;Max_cycle;Signal;HPM_P1;HPM_P2
2022/03/29 00:04:49;;;;;;;22.25;12.40;;;;;;;;;;10411510;28;20218;-73
2022/03/29 00:09:50;;;;;;;14.20;11.25;;;;;;;;;;10398194;28;20215;-74
2022/03/29 00:14:51;;;;;;;16.73;11.95;;;;;;;;;;10423209;28;20242;-74
2022/03/29 00:19:52;;;;;;;16.70;12.02;;;;;;;;;;10418644;28;20645;-74
2022/03/29 00:24:53;;;;;;;19.42;12.75;;;;;;;;;;10410923;28;20310;-74
2022/03/29 00:29:54;;;;;;;21.58;14.43;;;;;;;;;;10420309;28;20207;-74
2022/03/29 00:34:55;;;;;;;20.58;14.40;;;;;;;;;;10418395;28;20214;-74
2022/03/29 00:39:56;;;;;;;23.63;14.48;;;;;;;;;;10417806;28;20289;-74
2022/03/29 00:44:57;;;;;;;21.83;14.32;;;;;;;;;;10415380;28;20663;-74
2022/03/29 00:49:58;;;;;;;23.60;14.60;;;;;;;;;;10435263;28;20256;-74
2022/03/29 00:55:00;;;;;;;22.02;15.20;;;;;;;;;;10422036;28;20289;-75
2022/03/29 01:00:03;;;;;;;20.77;14.07;;;;;;;;;;10409836;28;20646;-74
2022/03/29 01:05:04;;;;;;;26.33;16.48;;;;;;;;;;10415543;28;20306;-75
2022/03/29 01:10:06;;;;;;;25.17;15.95;;;;;;;;;;10419421;28;20218;-75
2022/03/29 01:15:09;;;;;;;24.40;15.77;;;;;;;;;;10419796;28;20214;-74
2022/03/29 01:20:17;;;;;;;23.60;16.13;;;;;;;;;;10413626;28;20291;-74
2022/03/29 01:25:19;;;;;;;28.67;16.48;;;;;;;;;;10420737;28;20233;-74
2022/03/29 01:30:21;;;;;;;25.45;15.57;;;;;;;;;;10420383;28;20215;-74
2022/03/29 01:35:23;;;;;;;28.52;15.43;;;;;;;;;;10409758;28;20706;-74
2022/03/29 01:40:25;;;;;;;25.25;16.08;;;;;;;;;;10412058;28;20253;-74
2022/03/29 01:45:27;;;;;;;25.70;17.23;;;;;;;;;;10416070;28;20206;-74
2022/03/29 01:50:28;;;;;;;21.15;15.38;;;;;;;;;;10414017;28;20214;-75
2022/03/29 01:55:29;;;;;;;27.02;17.05;;;;;;;;;;10410599;28;20653;-75
2022/03/29 02:00:30;;;;;;;29.20;18.05;;;;;;;;;;10415807;28;20222;-75
2022/03/29 02:05:32;;;;;;;30.38;18.95;;;;;;;;;;10409765;28;20214;-74
2022/03/29 02:10:33;;;;;;;32.20;18.60;;;;;;;;;;10433401;28;20212;-75
2022/03/29 02:15:34;;;;;;;33.70;20.80;;;;;;;;;;10418331;28;20211;-75
2022/03/29 02:20:35;;;;;;;31.55;19.33;;;;;;;;;;10419357;28;20235;-75
2022/03/29 02:25:36;;;;;;;32.78;18.88;;;;;;;;;;10409076;28;20199;-75
2022/03/29 02:30:37;;;;;;;30.38;17.38;;;;;;;;;;10415372;28;20542;-75
2022/03/29 02:35:39;;;;;;;25.95;16.95;;;;;;;;;;10417652;28;20638;-75
2022/03/29 02:40:40;;;;;;;28.80;18.50;;;;;;;;;;10416326;28;20756;-74
2022/03/29 02:45:41;;;;;;;31.58;17.67;;;;;;;;;;10414588;28;20342;-75
2022/03/29 02:50:42;;;;;;;24.60;17.13;;;;;;;;;;10417224;28;20226;-75
2022/03/29 02:55:43;;;;;;;31.10;17.55;;;;;;;;;;10417013;28;20229;-74
2022/03/29 03:00:44;;;;;;;27.95;17.80;;;;;;;;;;10414233;28;20568;-74
2022/03/29 03:05:45;;;;;;;27.20;17.55;;;;;;;;;;10408563;28;20202;-75
2022/03/29 03:10:47;;;;;;;29.33;18.30;;;;;;;;;;10420116;28;20196;-75
2022/03/29 03:15:48;;;;;;;29.67;19.38;;;;;;;;;;10422404;28;20210;-75
2022/03/29 03:20:49;;;;;;;27.17;16.58;;;;;;;;;;10418031;28;20244;-74
2022/03/29 03:25:51;;;;;;;25.80;16.08;;;;;;;;;;10418347;28;20264;-74
2022/03/29 03:30:53;;;;;;;31.65;15.73;;;;;;;;;;10414865;28;20640;-74
2022/03/29 03:35:54;;;;;;;26.38;16.40;;;;;;;;;;10413034;28;20212;-75
2022/03/29 03:40:55;;;;;;;31.90;18.17;;;;;;;;;;10413238;28;20200;-75
2022/03/29 03:45:56;;;;;;;28.60;15.98;;;;;;;;;;10418123;28;20218;-75
2022/03/29 03:50:57;;;;;;;27.35;17.02;;;;;;;;;;10422074;28;20667;-74
2022/03/29 03:55:58;;;;;;;24.58;16.25;;;;;;;;;;10417556;28;20384;-74
2022/03/29 04:00:59;;;;;;;29.02;17.55;;;;;;;;;;10410205;28;20230;-74
2022/03/29 04:06:00;;;;;;;27.17;16.55;;;;;;;;;;10417888;28;20633;-75
2022/03/29 04:11:02;;;;;;;29.65;17.50;;;;;;;;;;10411477;28;20207;-75
2022/03/29 04:16:03;;;;;;;26.25;15.85;;;;;;;;;;10410442;28;20309;-74
2022/03/29 04:21:06;;;;;;;28.38;17.40;;;;;;;;;;10417950;28;20203;-75
2022/03/29 04:26:07;;;;;;;27.98;16.55;;;;;;;;;;10404436;28;20203;-74
2022/03/29 04:31:08;;;;;;;24.10;16.35;;;;;;;;;;10420228;28;20346;-75
2022/03/29 04:36:10;;;;;;;24.98;15.85;;;;;;;;;;10411378;28;20230;-77
2022/03/29 04:41:11;;;;;;;28.73;17.42;;;;;;;;;;10414816;28;20206;-76
2022/03/29 04:46:12;;;;;;;26.95;17.15;;;;;;;;;;10418010;28;20268;-74
2022/03/29 04:51:13;;;;;;;30.75;16.27;;;;;;;;;;10420770;28;20856;-74
2022/03/29 04:56:14;;;;;;;30.40;18.10;;;;;;;;;;10417261;28;20978;-74
2022/03/29 05:01:15;;;;;;;27.38;17.08;;;;;;;;;;10418911;28;20224;-74
2022/03/29 05:06:16;;;;;;;27.55;16.77;;;;;;;;;;10417760;28;20203;-75
2022/03/29 05:11:17;;;;;;;28.85;16.60;;;;;;;;;;10420705;28;20206;-75
2022/03/29 05:16:18;;;;;;;29.35;17.05;;;;;;;;;;10407883;28;20683;-74
2022/03/29 05:21:19;;;;;;;23.58;16.13;;;;;;;;;;10415539;28;20203;-73
2022/03/29 05:26:21;;;;;;;25.63;17.20;;;;;;;;;;10409470;28;20206;-74
2022/03/29 05:31:22;;;;;;;26.67;16.58;;;;;;;;;;10418309;28;20223;-75
2022/03/29 05:36:24;;;;;;;31.38;17.90;;;;;;;;;;10416120;28;20211;-75
2022/03/29 05:41:25;;;;;;;30.35;17.95;;;;;;;;;;10414527;28;20211;-75
2022/03/29 05:52:00;;;;;;;26.55;15.45;;;;;;;;;;10395713;28;20256;-75
2022/03/29 05:57:01;;;;;;;26.52;14.60;;;;;;;;;;10414576;28;20272;-75
2022/03/29 06:02:04;;;;;;;28.25;13.93;;;;;;;;;;10415747;28;20238;-76
2022/03/29 06:07:05;;;;;;;21.40;14.93;;;;;;;;;;10413080;28;20207;-76
2022/03/29 06:12:07;;;;;;;22.70;13.93;;;;;;;;;;10413997;28;20209;-75
2022/03/29 06:17:09;;;;;;;26.50;14.75;;;;;;;;;;10410164;28;20222;-76
2022/03/29 06:22:10;;;;;;;26.33;14.45;;;;;;;;;;10417727;28;20779;-77
2022/03/29 06:27:11;;;;;;;24.73;15.23;;;;;;;;;;10419915;28;20204;-76
2022/03/29 06:32:14;;;;;;;27.70;14.48;;;;;;;;;;10419641;28;20285;-76
2022/03/29 06:37:15;;;;;;;24.58;14.63;;;;;;;;;;10417836;28;20652;-76
2022/03/29 06:42:18;;;;;;;22.50;13.93;;;;;;;;;;10423199;28;20214;-76
2022/03/29 06:47:19;;;;;;;23.35;14.68;;;;;;;;;;10419918;28;20207;-75
2022/03/29 06:52:20;;;;;;;24.00;14.40;;;;;;;;;;10421970;28;20755;-76
2022/03/29 06:57:21;;;;;;;27.52;15.15;;;;;;;;;;10428660;28;20732;-76
2022/03/29 07:02:22;;;;;;;30.42;14.95;;;;;;;;;;10423365;28;20232;-74
2022/03/29 07:07:23;;;;;;;25.13;14.80;;;;;;;;;;10424900;28;20629;-76
2022/03/29 07:12:25;;;;;;;30.65;15.98;;;;;;;;;;10419552;28;20204;-76
2022/03/29 07:17:26;;;;;;;32.95;15.27;;;;;;;;;;10424268;28;20690;-76
2022/03/29 07:22:27;;;;;;;24.17;14.55;;;;;;;;;;10424947;28;20744;-76
2022/03/29 07:27:28;;;;;;;27.92;15.73;;;;;;;;;;10424044;28;20222;-76
2022/03/29 07:32:30;;;;;;;21.70;15.35;;;;;;;;;;10423719;28;20215;-76
2022/03/29 07:37:31;;;;;;;29.73;16.20;;;;;;;;;;10419898;28;20223;-76
2022/03/29 07:42:33;;;;;;;27.38;15.30;;;;;;;;;;10423778;28;20196;-76
2022/03/29 07:47:35;;;;;;;28.70;15.60;;;;;;;;;;10422875;28;20207;-76
2022/03/29 07:52:37;;;;;;;26.15;15.98;;;;;;;;;;10423039;28;20217;-76
2022/03/29 07:57:39;;;;;;;23.40;15.20;;;;;;;;;;10418818;28;20294;-76
2022/03/29 08:02:40;;;;;;;29.83;16.23;;;;;;;;;;10423029;28;20246;-76
2022/03/29 08:07:41;;;;;;;29.08;16.15;;;;;;;;;;10425225;28;20236;-76
2022/03/29 08:12:42;;;;;;;34.03;16.52;;;;;;;;;;10421782;28;20209;-77
2022/03/29 08:17:43;;;;;;;33.33;17.40;;;;;;;;;;10419810;28;20202;-77
2022/03/29 08:22:46;;;;;;;34.47;17.90;;;;;;;;;;10426640;28;20199;-74
2022/03/29 08:27:48;;;;;;;30.95;17.90;;;;;;;;;;10425505;28;20210;-75
2022/03/29 08:32:49;;;;;;;35.30;19.48;;;;;;;;;;10420586;28;20207;-74
2022/03/29 08:37:51;;;;;;;32.55;18.73;;;;;;;;;;10420326;28;20249;-75
2022/03/29 08:42:54;;;;;;;33.08;18.90;;;;;;;;;;10419211;28;20886;-76
2022/03/29 08:47:56;;;;;;;34.67;19.13;;;;;;;;;;10423434;28;20286;-75
2022/03/29 08:52:58;;;;;;;32.05;19.17;;;;;;;;;;10421743;28;20254;-75
2022/03/29 08:58:00;;;;;;;34.50;20.75;;;;;;;;;;10424819;28;20202;-76
2022/03/29 09:03:01;;;;;;;33.55;18.45;;;;;;;;;;10420010;28;20207;-74
2022/03/29 09:08:04;;;;;;;32.38;17.83;;;;;;;;;;10416615;28;20765;-74
2022/03/29 09:13:26;;;;;;;33.72;18.33;;;;;;;;;;10417813;28;20211;-75
2022/03/29 09:18:28;;;;;;;28.80;17.33;;;;;;;;;;10419409;28;20245;-75
2022/03/29 09:23:29;;;;;;;30.67;18.48;;;;;;;;;;10418151;28;20192;-74
2022/03/29 09:28:34;;;;;;;34.83;19.02;;;;;;;;;;10416484;28;20215;-74
2022/03/29 09:33:40;;;;;;;32.30;17.80;;;;;;;;;;10412894;28;20651;-75
2022/03/29 09:38:42;;;;;;;31.20;19.08;;;;;;;;;;10411625;28;20274;-77
2022/03/29 09:43:43;;;;;;;33.40;19.48;;;;;;;;;;10413557;28;20206;-76
2022/03/29 09:48:44;;;;;;;31.83;18.33;;;;;;;;;;10414140;28;20210;-74
2022/03/29 09:53:47;;;;;;;32.70;19.95;;;;;;;;;;10420502;28;20969;-76
2022/03/29 09:59:01;;;;;;;34.25;19.88;;;;;;;;;;10416050;28;20199;-75
2022/03/29 10:04:02;;;;;;;34.45;18.58;;;;;;;;;;10419763;28;20288;-75
2022/03/29 10:14:25;;;;;;;30.45;18.83;;;;;;;;;;10432906;28;20298;-76
2022/03/29 10:19:26;;;;;;;28.90;18.65;;;;;;;;;;10425085;28;20202;-75
2022/03/29 10:24:31;;;;;;;36.83;19.67;;;;;;;;;;10427679;28;20229;-76
2022/03/29 10:29:32;;;;;;;30.48;19.58;;;;;;;;;;10428557;28;20214;-75
2022/03/29 10:34:40;;;;;;;28.27;18.08;;;;;;;;;;10427161;28;20580;-73
2022/03/29 10:39:47;;;;;;;30.85;19.35;;;;;;;;;;10428257;28;20282;-76
2022/03/29 10:45:01;;;;;;;29.55;18.10;;;;;;;;;;10427568;28;20210;-77
2022/03/29 10:50:03;;;;;;;30.42;19.05;;;;;;;;;;10422578;28;20203;-76
2022/03/29 10:55:14;;;;;;;37.88;18.20;;;;;;;;;;10426747;28;20578;-75
2022/03/29 11:00:21;;;;;;;30.48;18.45;;;;;;;;;;10425756;28;20195;-76
2022/03/29 11:05:23;;;;;;;31.70;18.30;;;;;;;;;;10441616;28;20227;-75
2022/03/29 11:10:38;;;;;;;29.63;17.75;;;;;;;;;;10425355;28;20202;-74
2022/03/29 11:15:39;;;;;;;23.63;15.50;;;;;;;;;;10424611;28;20234;-76
2022/03/29 11:20:40;;;;;;;26.35;17.20;;;;;;;;;;10426713;28;20199;-76
2022/03/29 11:25:49;;;;;;;32.15;18.23;;;;;;;;;;10421193;28;20570;-78
2022/03/29 11:30:56;;;;;;;29.33;18.70;;;;;;;;;;10439069;28;20257;-77
2022/03/29 11:35:57;;;;;;;25.02;18.25;;;;;;;;;;10420619;28;20210;-77
2022/03/29 11:40:58;;;;;;;30.38;16.88;;;;;;;;;;10419915;28;20291;-76
2022/03/29 11:46:00;;;;;;;28.65;16.63;;;;;;;;;;10419756;28;20207;-77
2022/03/29 11:51:02;;;;;;;30.90;18.08;;;;;;;;;;10418326;28;20211;-76
2022/03/29 11:56:07;;;;;;;24.85;16.70;;;;;;;;;;10420514;28;20892;-74
2022/03/29 12:01:09;;;;;;;26.98;16.85;;;;;;;;;;10423046;28;20269;-73
2022/03/29 12:06:18;;;;;;;25.42;16.65;;;;;;;;;;10423238;28;20206;-74
2022/03/29 12:11:24;;;;;;;23.08;16.00;;;;;;;;;;10424057;28;20213;-74
2022/03/29 12:16:26;;;;;;;22.60;16.15;;;;;;;;;;10419056;28;20260;-77
2022/03/29 12:21:27;;;;;;;26.27;16.55;;;;;;;;;;10420215;28;20710;-75
2022/03/29 12:26:28;;;;;;;28.10;17.52;;;;;;;;;;10417653;28;20199;-74
2022/03/29 12:31:30;;;;;;;28.40;17.98;;;;;;;;;;10418571;28;20234;-75
2022/03/29 12:36:31;;;;;;;26.50;17.75;;;;;;;;;;10419989;28;20230;-75
2022/03/29 12:41:46;;;;;;;26.98;17.15;;;;;;;;;;10417073;28;20701;-76
2022/03/29 12:46:47;;;;;;;30.20;19.33;;;;;;;;;;10426650;28;20199;-76
2022/03/29 12:51:56;;;;;;;29.85;17.70;;;;;;;;;;10421335;28;21163;-74
2022/03/29 12:56:58;;;;;;;27.27;17.67;;;;;;;;;;10420262;28;20272;-74
2022/03/29 13:02:01;;;;;;;30.15;17.80;;;;;;;;;;10416221;28;20215;-76
2022/03/29 13:07:02;;;;;;;26.60;17.27;;;;;;;;;;10421801;28;20234;-77
2022/03/29 13:12:14;;;;;;;28.15;16.05;;;;;;;;;;10424305;28;20578;-77
2022/03/29 13:17:15;;;;;;;25.20;17.88;;;;;;;;;;10420414;28;20318;-77
2022/03/29 13:22:17;;;;;;;26.70;17.63;;;;;;;;;;10420921;28;20683;-76
2022/03/29 13:27:18;;;;;;;28.08;18.75;;;;;;;;;;10424245;28;20203;-75
2022/03/29 13:32:19;;;;;;;30.88;17.73;;;;;;;;;;10421078;28;20223;-77
2022/03/29 13:37:20;;;;;;;27.42;17.23;;;;;;;;;;10420617;28;20215;-77
2022/03/29 13:42:21;;;;;;;26.88;17.02;;;;;;;;;;10423683;28;20206;-76
2022/03/29 13:47:23;;;;;;;25.88;17.20;;;;;;;;;;10422069;28;20591;-77
2022/03/29 13:52:24;;;;;;;27.85;16.42;;;;;;;;;;10419360;28;20218;-76
2022/03/29 13:57:26;;;;;;;25.98;17.58;;;;;;;;;;10419956;28;20291;-77
2022/03/29 14:02:27;;;;;;;21.85;16.83;;;;;;;;;;10416942;28;20221;-75
2022/03/29 14:07:28;;;;;;;25.45;16.50;;;;;;;;;;10420785;28;20202;-76
2022/03/29 14:12:29;;;;;;;24.83;14.82;;;;;;;;;;10421412;28;20215;-77
2022/03/29 14:17:31;;;;;;;24.33;15.35;;;;;;;;;;10422065;28;20206;-78
2022/03/29 14:22:34;;;;;;;22.88;16.20;;;;;;;;;;10420739;28;20250;-77
2022/03/29 14:27:35;;;;;;;27.02;16.33;;;;;;;;;;10421635;28;20222;-79
2022/03/29 14:32:36;;;;;;;24.73;15.98;;;;;;;;;;10420992;28;20293;-78
2022/03/29 14:37:38;;;;;;;23.48;16.05;;;;;;;;;;10420901;28;20266;-75
2022/03/29 14:42:40;;;;;;;26.27;15.90;;;;;;;;;;10420725;28;20239;-75
2022/03/29 14:47:41;;;;;;;27.50;17.55;;;;;;;;;;10417398;28;20209;-75
2022/03/29 14:52:43;;;;;;;29.63;15.95;;;;;;;;;;10423216;28;20242;-77
2022/03/29 14:57:45;;;;;;;25.52;15.80;;;;;;;;;;10430658;28;20215;-80
2022/03/29 15:02:46;;;;;;;27.75;15.88;;;;;;;;;;10429923;28;20840;-83
2022/03/29 15:07:47;;;;;;;23.42;16.00;;;;;;;;;;10436703;28;20202;-81
2022/03/29 15:12:48;;;;;;;25.92;15.50;;;;;;;;;;10429698;28;20202;-83
2022/03/29 15:17:50;;;;;;;23.77;15.40;;;;;;;;;;10438846;28;20207;-81
2022/03/29 15:22:52;;;;;;;22.23;14.27;;;;;;;;;;10441351;28;20202;-79
2022/03/29 15:27:53;;;;;;;23.05;14.95;;;;;;;;;;10440308;28;20207;-84
2022/03/29 15:32:54;;;;;;;27.98;15.80;;;;;;;;;;10442347;28;20298;-85
2022/03/29 15:37:55;;;;;;;35.30;14.85;;;;;;;;;;10441335;28;20698;-85
2022/03/29 15:42:56;;;;;;;29.25;15.95;;;;;;;;;;10432137;28;20252;-77
2022/03/29 15:47:57;;;;;;;25.85;15.38;;;;;;;;;;10426367;28;20365;-80
2022/03/29 15:52:58;;;;;;;24.85;15.60;;;;;;;;;;10435678;28;20246;-78
2022/03/29 15:57:59;;;;;;;27.88;15.27;;;;;;;;;;10431468;28;20196;-79
2022/03/29 16:03:01;;;;;;;23.73;15.00;;;;;;;;;;10428007;28;20222;-79
2022/03/29 16:08:03;;;;;;;25.08;15.45;;;;;;;;;;10430275;28;20257;-79
2022/03/29 16:13:04;;;;;;;22.73;14.48;;;;;;;;;;10428006;28;20207;-80
2022/03/29 16:18:05;;;;;;;19.00;12.68;;;;;;;;;;10428888;28;20195;-80
2022/03/29 16:23:06;;;;;;;23.35;13.98;;;;;;;;;;10428109;28;20196;-80
2022/03/29 16:28:07;;;;;;;22.10;12.13;;;;;;;;;;10434712;28;20201;-80
2022/03/29 16:33:08;;;;;;;20.25;13.02;;;;;;;;;;10436089;28;20217;-82
2022/03/29 16:38:09;;;;;;;18.02;12.50;;;;;;;;;;10433861;28;20202;-81
2022/03/29 16:43:11;;;;;;;25.23;12.93;;;;;;;;;;10438042;28;20317;-80
2022/03/29 16:48:12;;;;;;;21.95;13.10;;;;;;;;;;10429856;28;20199;-79
2022/03/29 16:53:13;;;;;;;20.02;13.00;;;;;;;;;;10432919;28;20265;-79
2022/03/29 16:58:14;;;;;;;20.38;12.88;;;;;;;;;;10432904;28;20439;-78
2022/03/29 17:03:15;;;;;;;22.08;12.98;;;;;;;;;;10431368;28;20234;-79
2022/03/29 17:08:16;;;;;;;20.17;12.27;;;;;;;;;;10426672;28;20199;-78
2022/03/29 17:13:17;;;;;;;14.35;10.43;;;;;;;;;;10431672;28;20284;-79
2022/03/29 17:18:18;;;;;;;17.90;9.65;;;;;;;;;;10429378;28;20206;-76
2022/03/29 17:23:19;;;;;;;15.73;9.88;;;;;;;;;;10429513;28;20195;-78
2022/03/29 17:28:22;;;;;;;15.35;11.07;;;;;;;;;;10441990;28;20285;-78
2022/03/29 17:33:23;;;;;;;21.95;11.20;;;;;;;;;;10429731;28;20306;-77
2022/03/29 17:38:27;;;;;;;17.40;10.75;;;;;;;;;;10430238;28;20689;-78
2022/03/29 17:43:29;;;;;;;18.23;9.55;;;;;;;;;;10433517;28;20686;-80
2022/03/29 17:48:30;;;;;;;18.45;9.82;;;;;;;;;;10427810;28;20675;-80
2022/03/29 17:53:33;;;;;;;15.15;9.00;;;;;;;;;;10430418;28;20226;-78
2022/03/29 17:58:35;;;;;;;15.27;9.05;;;;;;;;;;10426138;28;20269;-79
2022/03/29 18:03:37;;;;;;;15.18;9.38;;;;;;;;;;10438437;28;20238;-77
2022/03/29 18:08:38;;;;;;;16.65;9.00;;;;;;;;;;10442447;28;20293;-78
2022/03/29 18:13:39;;;;;;;17.08;9.05;;;;;;;;;;10428327;28;20598;-79
2022/03/29 18:18:41;;;;;;;12.38;8.85;;;;;;;;;;10425928;28;20192;-79
2022/03/29 18:23:44;;;;;;;14.88;9.95;;;;;;;;;;10423161;28;20190;-79
2022/03/29 18:28:45;;;;;;;19.88;10.13;;;;;;;;;;10424419;28;20233;-79
2022/03/29 18:33:47;;;;;;;18.67;10.75;;;;;;;;;;10430333;28;20218;-79
2022/03/29 18:38:48;;;;;;;16.50;9.40;;;;;;;;;;10429045;28;20217;-79
2022/03/29 18:43:50;;;;;;;19.98;9.77;;;;;;;;;;10430528;28;20205;-79
2022/03/29 18:48:52;;;;;;;16.95;10.30;;;;;;;;;;10431084;28;20214;-79
2022/03/29 18:53:53;;;;;;;20.25;9.10;;;;;;;;;;10431803;28;20601;-79
2022/03/29 18:58:54;;;;;;;22.73;9.15;;;;;;;;;;10450913;28;20305;-80
2022/03/29 19:03:56;;;;;;;19.38;11.23;;;;;;;;;;10430884;28;20230;-79
2022/03/29 19:08:57;;;;;;;21.35;10.32;;;;;;;;;;10433831;28;20210;-79
2022/03/29 19:13:58;;;;;;;28.05;10.02;;;;;;;;;;10426619;28;20234;-78
2022/03/29 19:19:00;;;;;;;21.85;10.07;;;;;;;;;;10430417;28;20253;-78
2022/03/29 19:24:01;;;;;;;24.17;10.35;;;;;;;;;;10429169;28;20248;-81
2022/03/29 19:29:02;;;;;;;15.63;8.82;;;;;;;;;;10444026;28;20199;-81
2022/03/29 19:34:04;;;;;;;27.63;9.48;;;;;;;;;;10437836;28;20266;-78
2022/03/29 19:39:32;;;;;;;14.85;8.35;;;;;;;;;;10433194;28;20212;-78
2022/03/29 19:44:40;;;;;;;16.08;8.55;;;;;;;;;;10424218;28;20210;-78
2022/03/29 19:49:43;;;;;;;13.55;7.38;;;;;;;;;;10433678;28;20198;-79
2022/03/29 19:54:44;;;;;;;19.10;7.90;;;;;;;;;;10430107;28;20285;-76
2022/03/29 19:59:46;;;;;;;17.70;8.27;;;;;;;;;;10423655;28;20584;-76
2022/03/29 20:04:48;;;;;;;16.05;7.65;;;;;;;;;;10420969;28;20219;-76
2022/03/29 20:09:49;;;;;;;15.63;7.22;;;;;;;;;;10429528;28;20297;-80
2022/03/29 20:14:50;;;;;;;21.23;7.07;;;;;;;;;;10427446;28;20306;-77
2022/03/29 20:19:51;;;;;;;12.68;6.78;;;;;;;;;;10424381;28;20191;-75
2022/03/29 20:24:52;;;;;;;12.68;6.80;;;;;;;;;;10424439;28;20212;-76
2022/03/29 20:29:53;;;;;;;16.85;7.00;;;;;;;;;;10429466;28;20192;-76
2022/03/29 20:34:55;;;;;;;14.85;7.65;;;;;;;;;;10420873;28;20222;-76
2022/03/29 20:39:55;;;;;;;12.98;7.68;;;;;;;;;;10428689;28;20210;-79
2022/03/29 20:44:56;;;;;;;14.60;7.93;;;;;;;;;;10422564;28;20211;-77
2022/03/29 20:49:58;;;;;;;15.35;7.03;;;;;;;;;;10423860;28;20227;-77
2022/03/29 20:54:59;;;;;;;15.80;7.32;;;;;;;;;;10422006;28;20234;-77
2022/03/29 21:00:00;;;;;;;13.13;6.72;;;;;;;;;;10426760;28;20270;-76
2022/03/29 21:05:01;;;;;;;15.88;7.40;;;;;;;;;;10426415;28;20228;-77
2022/03/29 21:10:02;;;;;;;12.27;6.53;;;;;;;;;;10419248;28;20199;-77
2022/03/29 21:15:04;;;;;;;15.82;7.13;;;;;;;;;;10425281;28;20298;-77
2022/03/29 21:20:06;;;;;;;16.35;7.03;;;;;;;;;;10420372;28;20194;-77
2022/03/29 21:25:07;;;;;;;14.95;7.25;;;;;;;;;;10420477;28;20214;-76
2022/03/29 21:30:10;;;;;;;14.52;7.45;;;;;;;;;;10422173;28;20207;-76
2022/03/29 21:35:11;;;;;;;16.00;6.75;;;;;;;;;;10423408;28;20223;-76
2022/03/29 21:40:12;;;;;;;25.15;7.60;;;;;;;;;;10417890;28;20230;-76
2022/03/29 21:45:13;;;;;;;14.25;6.47;;;;;;;;;;10422650;28;20297;-77
2022/03/29 21:50:14;;;;;;;8.80;5.43;;;;;;;;;;10421629;28;20271;-77
2022/03/29 21:55:34;;;;;;;10.02;5.97;;;;;;;;;;10417806;28;20223;-76
2022/03/29 22:00:53;;;;;;;14.15;5.57;;;;;;;;;;10418907;28;20585;-76
2022/03/29 22:06:13;;;;;;;11.20;4.65;;;;;;;;;;10421595;28;20752;-76
2022/03/29 22:11:15;;;;;;;9.25;4.28;;;;;;;;;;10439100;28;20211;-76
2022/03/29 22:16:16;;;;;;;10.82;4.13;;;;;;;;;;10426211;28;20218;-77
2022/03/29 22:21:17;;;;;;;12.98;3.67;;;;;;;;;;10434623;28;20234;-76
2022/03/29 22:26:18;;;;;;;6.70;3.15;;;;;;;;;;10426413;28;20648;-75
2022/03/29 22:31:19;;;;;;;7.35;2.85;;;;;;;;;;10421178;28;20284;-76
2022/03/29 22:36:20;;;;;;;13.23;2.97;;;;;;;;;;10420131;28;20253;-76
2022/03/29 22:41:21;;;;;;;5.57;2.67;;;;;;;;;;10423622;28;20212;-76
2022/03/29 22:46:23;;;;;;;5.22;2.50;;;;;;;;;;10421090;28;21015;-77
2022/03/29 22:51:24;;;;;;;4.25;2.10;;;;;;;;;;10422657;28;20695;-76
2022/03/29 23:01:45;;;;;;;6.57;2.10;;;;;;;;;;10420158;28;20242;-76
2022/03/29 23:06:46;;;;;;;5.13;1.45;;;;;;;;;;10420788;28;20285;-76
2022/03/29 23:11:48;;;;;;;5.90;1.30;;;;;;;;;;10419343;28;20283;-76
2022/03/29 23:16:50;;;;;;;4.30;1.00;;;;;;;;;;10423849;28;20238;-75
2022/03/29 23:21:51;;;;;;;2.65;1.17;;;;;;;;;;10427361;28;20606;-76
2022/03/29 23:26:52;;;;;;;7.57;1.33;;;;;;;;;;10427224;28;20210;-76
2022/03/29 23:31:53;;;;;;;4.95;1.92;;;;;;;;;;10427647;28;20849;-76
2022/03/29 23:36:54;;;;;;;2.67;1.10;;;;;;;;;;10410788;28;20218;-76
2022/03/29 23:41:55;;;;;;;2.92;1.13;;;;;;;;;;10434895;28;21540;-76
2022/03/29 23:46:58;;;;;;;2.80;0.60;;;;;;;;;;10424841;28;20295;-76
2022/03/29 23:51:59;;;;;;;3.90;0.80;;;;;;;;;;10432374;28;20199;-75
2022/03/29 23:57:00;;;;;;;4.90;1.02;;;;;;;;;;10437725;28;20669;-76
